Time;durP1;ratioP1;P1;durP2;ratioP2;P2;SDS_P1;SDS_P2;PMS_P1;PMS_P2;Temp;Humidity;BMP_temperature;BMP_pressure;BME280_temperature;BME280_humidity;BME280_pressure;Samples;Min_cycle;Max_cycle;Signal;HPM_P1;HPM_P2
2021/08/30 00:00:08;;;;;;;10.75;3.45;;;;;;;16.55;79.78;101493.25;5015496;28;20062;-63
2021/08/30 00:02:35;;;;;;;12.00;4.22;;;;;;;16.34;80.53;101492.34;4998299;28;20042;-63
2021/08/30 00:05:04;;;;;;;10.27;3.13;;;;;;;16.18;81.36;101501.56;5015951;28;20049;-63
2021/08/30 00:07:31;;;;;;;13.52;3.72;;;;;;;16.03;81.40;101493.75;5014502;28;20061;-65
2021/08/30 00:09:59;;;;;;;13.18;3.20;;;;;;;16.26;80.88;101497.94;5015771;28;20049;-63
2021/08/30 00:12:26;;;;;;;7.22;3.15;;;;;;;16.45;80.15;101492.78;5019454;28;20056;-63
2021/08/30 00:14:55;;;;;;;13.60;3.78;;;;;;;16.46;80.25;101494.41;5055768;28;20412;-64
2021/08/30 00:17:22;;;;;;;14.45;3.45;;;;;;;16.78;78.55;101494.63;5053863;28;20084;-62
2021/08/30 00:19:49;;;;;;;17.40;4.28;;;;;;;16.48;79.59;101494.91;5054978;28;20052;-60
2021/08/30 00:22:16;;;;;;;13.15;3.33;;;;;;;16.47;79.77;101496.91;5037526;28;20148;-66
2021/08/30 00:24:43;;;;;;;12.18;3.78;;;;;;;16.48;79.42;101494.91;5055248;28;20160;-62
2021/08/30 00:27:11;;;;;;;12.30;3.70;;;;;;;16.41;80.28;101497.38;5055081;28;20049;-62
2021/08/30 00:29:38;;;;;;;10.63;3.88;;;;;;;16.82;78.90;101486.41;5055138;28;20722;-62
2021/08/30 00:32:05;;;;;;;12.57;3.75;;;;;;;17.13;77.23;101488.81;5055070;28;20059;-64
2021/08/30 00:34:32;;;;;;;11.10;3.63;;;;;;;17.31;76.37;101485.56;5055210;28;20045;-63
2021/08/30 00:37:00;;;;;;;17.80;3.90;;;;;;;16.74;78.51;101490.03;5055022;28;20286;-63
2021/08/30 00:39:29;;;;;;;13.80;5.00;;;;;;;16.61;79.23;101480.81;5054994;28;20052;-62
2021/08/30 00:41:56;;;;;;;9.18;3.92;;;;;;;16.92;77.91;101474.88;5053518;28;20080;-62
2021/08/30 00:44:24;;;;;;;12.23;4.05;;;;;;;17.24;76.11;101474.16;5043626;28;20049;-62
2021/08/30 00:46:51;;;;;;;15.35;4.28;;;;;;;17.05;77.17;101473.78;5032642;28;20038;-62
2021/08/30 00:49:19;;;;;;;13.23;4.60;;;;;;;16.95;77.20;101478.94;5033629;28;20064;-65
2021/08/30 00:51:47;;;;;;;16.52;4.80;;;;;;;16.58;79.35;101475.91;5033658;28;20049;-63
2021/08/30 00:54:14;;;;;;;15.05;4.82;;;;;;;16.98;77.92;101469.94;5035086;28;20072;-62
2021/08/30 00:56:42;;;;;;;12.20;3.97;;;;;;;17.31;76.59;101465.25;5035130;28;20052;-64
2021/08/30 00:59:09;;;;;;;13.65;4.72;;;;;;;17.52;75.24;101468.88;5016682;28;20053;-62
2021/08/30 01:01:37;;;;;;;14.57;5.28;;;;;;;17.30;75.51;101466.41;5034323;28;20045;-61
2021/08/30 01:04:08;;;;;;;15.02;5.07;;;;;;;17.15;75.87;101465.06;5034402;28;20045;-62
2021/08/30 01:06:54;;;;;;;19.67;5.80;;;;;;;16.42;79.96;101466.44;5000920;28;20046;-61
2021/08/30 01:09:50;;;;;;;14.98;4.55;;;;;;;16.87;78.64;101463.94;5034119;28;20528;-61
2021/08/30 01:12:44;;;;;;;13.60;4.90;;;;;;;16.95;77.83;101463.06;5033477;28;20456;-62
2021/08/30 01:15:12;;;;;;;11.93;5.03;;;;;;;16.85;77.87;101472.66;5049286;28;20075;-62
2021/08/30 01:17:41;;;;;;;18.65;4.72;;;;;;;16.86;78.78;101456.75;5052532;28;20060;-62
2021/08/30 01:20:46;;;;;;;12.10;5.45;;;;;;;16.93;78.54;101459.81;5052062;28;20439;-61
2021/08/30 01:23:14;;;;;;;15.63;5.07;;;;;;;16.55;80.71;101461.84;5052691;28;20067;-61
2021/08/30 01:25:41;;;;;;;16.15;5.82;;;;;;;16.77;79.99;101458.78;5035840;28;20060;-62
2021/08/30 01:28:09;;;;;;;14.05;5.00;;;;;;;16.76;80.29;101468.28;5052798;28;20056;-61
2021/08/30 01:30:37;;;;;;;17.80;5.90;;;;;;;16.63;80.94;101461.00;5052473;28;20056;-61
2021/08/30 01:33:05;;;;;;;14.52;5.50;;;;;;;16.87;80.33;101458.38;5036128;28;20512;-61
2021/08/30 01:35:33;;;;;;;19.60;6.50;;;;;;;17.01;79.46;101450.59;5053862;28;20049;-64
2021/08/30 01:38:02;;;;;;;16.23;6.65;;;;;;;17.28;78.44;101463.13;5052869;28;20048;-62
2021/08/30 01:40:31;;;;;;;20.23;7.22;;;;;;;16.81;80.82;101462.50;5052192;28;20057;-63
2021/08/30 01:43:00;;;;;;;18.25;6.93;;;;;;;16.88;80.40;101455.25;5052685;28;20057;-62
2021/08/30 01:45:32;;;;;;;19.83;8.48;;;;;;;16.76;81.56;101446.00;5052702;28;20049;-63
2021/08/30 01:48:02;;;;;;;18.25;7.00;;;;;;;16.93;80.74;101456.22;5052670;28;20048;-61
2021/08/30 01:50:30;;;;;;;16.92;6.88;;;;;;;17.26;79.87;101448.75;5052285;28;20064;-62
2021/08/30 01:53:00;;;;;;;21.45;7.15;;;;;;;16.74;81.24;101454.69;5053865;28;20053;-62
2021/08/30 02:00:43;;;;;;;22.05;7.88;;;;;;;17.23;79.82;101449.41;5053457;28;20061;-62
2021/08/30 02:03:11;;;;;;;19.02;7.35;;;;;;;17.37;78.77;101455.53;5053621;28;20049;-63
2021/08/30 02:05:39;;;;;;;19.98;7.40;;;;;;;17.47;78.31;101444.03;5053711;28;20132;-62
2021/08/30 02:08:06;;;;;;;19.45;7.95;;;;;;;17.48;78.18;101454.81;5052450;28;20484;-62
2021/08/30 02:10:33;;;;;;;17.85;7.72;;;;;;;17.18;80.09;101458.81;5052075;28;20641;-62
2021/08/30 02:13:01;;;;;;;21.63;8.70;;;;;;;16.83;81.79;101458.25;5045787;28;20057;-62
2021/08/30 02:15:28;;;;;;;21.48;8.38;;;;;;;16.53;84.57;101441.88;5032536;28;20053;-61
2021/08/30 02:18:00;;;;;;;19.33;8.68;;;;;;;16.76;83.35;101454.34;4999823;28;20042;-62
2021/08/30 02:20:29;;;;;;;17.27;8.15;;;;;;;16.59;84.54;101454.47;5031769;28;20049;-62
2021/08/30 02:22:58;;;;;;;19.67;7.93;;;;;;;16.45;85.93;101451.91;5033607;28;20045;-62
2021/08/30 02:25:26;;;;;;;20.67;7.85;;;;;;;16.35;86.85;101445.91;5033501;28;20064;-62
2021/08/30 02:27:54;;;;;;;20.08;7.57;;;;;;;16.64;85.43;101441.19;5032080;28;20433;-62
2021/08/30 02:30:23;;;;;;;17.42;7.80;;;;;;;16.36;86.94;101448.34;5031809;28;20433;-61
2021/08/30 02:32:52;;;;;;;15.57;7.65;;;;;;;16.70;85.80;101444.59;5031659;28;20053;-61
2021/08/30 02:35:22;;;;;;;20.67;8.10;;;;;;;16.88;84.21;101450.88;5033194;28;20509;-61
2021/08/30 02:37:51;;;;;;;14.65;8.18;;;;;;;16.79;84.63;101445.31;5032277;28;20045;-61
2021/08/30 02:40:22;;;;;;;21.30;7.75;;;;;;;16.77;85.48;101445.66;5033215;28;20045;-61
2021/08/30 02:42:50;;;;;;;16.65;7.80;;;;;;;16.75;85.08;101449.97;5031450;28;20053;-61
2021/08/30 02:45:18;;;;;;;18.10;8.32;;;;;;;16.84;84.97;101442.38;5031970;28;20049;-61
2021/08/30 02:47:46;;;;;;;16.48;8.25;;;;;;;16.81;85.22;101443.84;5031656;28;20042;-61
2021/08/30 02:50:13;;;;;;;17.75;8.15;;;;;;;16.80;85.37;101447.81;5031717;28;20058;-62
2021/08/30 02:52:41;;;;;;;17.95;8.07;;;;;;;16.94;84.47;101441.97;5015981;28;20057;-60
2021/08/30 02:55:11;;;;;;;15.80;8.38;;;;;;;16.62;85.80;101449.03;5035523;28;20053;-62
2021/08/30 02:57:38;;;;;;;21.58;8.80;;;;;;;16.21;89.41;101446.13;5035229;28;20065;-62
2021/08/30 03:00:06;;;;;;;14.52;6.85;;;;;;;17.03;85.66;101442.72;5036607;28;20057;-62
2021/08/30 03:02:36;;;;;;;15.50;8.25;;;;;;;16.67;86.55;101445.25;5035253;28;20045;-60
2021/08/30 03:05:04;;;;;;;;;;;;;;;16.82;86.43;101444.69;5035849;28;20064;-61
2021/08/30 03:07:32;;;;;;;15.38;7.95;;;;;;;17.00;85.13;101448.94;5035475;28;19924;-63
2021/08/30 03:09:59;;;;;;;18.67;8.65;;;;;;;17.11;84.24;101444.63;5035491;28;20056;-63
2021/08/30 03:12:29;;;;;;;13.73;7.70;;;;;;;16.73;86.69;101446.69;5020963;28;20492;-63
2021/08/30 03:15:01;;;;;;;19.60;8.45;;;;;;;16.75;86.87;101442.41;5055571;28;20503;-63
2021/08/30 03:17:30;;;;;;;19.58;8.55;;;;;;;16.96;86.13;101439.66;5055210;28;20041;-61
2021/08/30 03:19:57;;;;;;;14.63;7.30;;;;;;;16.78;86.59;101432.59;5055196;28;20056;-63
2021/08/30 03:22:25;;;;;;;15.55;7.82;;;;;;;17.01;85.47;101438.63;5038447;28;20053;-63
2021/08/30 03:24:53;;;;;;;15.80;8.63;;;;;;;17.00;85.59;101445.38;5038747;28;20052;-61
2021/08/30 03:27:22;;;;;;;17.58;8.20;;;;;;;17.02;85.29;101437.47;5055007;28;20045;-61
2021/08/30 03:29:50;;;;;;;19.13;8.38;;;;;;;17.15;84.80;101431.66;5054676;28;20412;-60
2021/08/30 03:32:18;;;;;;;13.70;8.40;;;;;;;17.14;84.46;101440.34;5055899;28;20504;-61
2021/08/30 03:34:46;;;;;;;14.00;7.38;;;;;;;17.28;84.21;101441.69;5056199;28;20064;-61
2021/08/30 03:37:13;;;;;;;17.23;8.82;;;;;;;17.64;81.99;101438.28;5056070;28;20045;-61
2021/08/30 03:39:42;;;;;;;16.90;8.75;;;;;;;17.38;83.50;101423.75;5056222;28;20055;-62
2021/08/30 03:42:09;;;;;;;13.20;7.72;;;;;;;17.51;82.71;101434.63;5054577;28;20041;-61
2021/08/30 03:44:37;;;;;;;14.45;9.20;;;;;;;17.43;83.48;101434.69;5054966;28;20045;-61
2021/08/30 03:47:05;;;;;;;16.48;9.30;;;;;;;17.53;83.06;101437.06;5054472;28;20057;-62
2021/08/30 03:49:35;;;;;;;16.63;8.40;;;;;;;17.72;82.08;101429.81;5055743;28;20044;-61
2021/08/30 03:52:03;;;;;;;20.27;10.67;;;;;;;17.28;84.13;101433.31;5038147;28;20060;-61
2021/08/30 03:54:31;;;;;;;15.80;10.10;;;;;;;17.43;83.76;101434.69;5055730;28;20328;-61
2021/08/30 03:56:59;;;;;;;20.30;8.27;;;;;;;17.63;82.53;101431.06;5037783;28;20045;-61
2021/08/30 03:59:29;;;;;;;14.45;8.75;;;;;;;17.88;81.23;101419.66;5038238;28;20041;-63
2021/08/30 04:01:56;;;;;;;16.75;9.90;;;;;;;17.73;81.41;101427.88;5054243;28;20052;-62
2021/08/30 04:04:24;;;;;;;18.40;9.88;;;;;;;17.82;81.23;101431.34;5055361;28;20052;-61
2021/08/30 04:06:53;;;;;;;17.02;10.18;;;;;;;17.75;81.49;101426.34;5054355;28;20053;-62
2021/08/30 04:09:22;;;;;;;16.75;10.02;;;;;;;17.37;83.71;101422.94;5037538;28;20052;-61
2021/08/30 04:11:49;;;;;;;19.27;10.52;;;;;;;17.43;83.54;101429.94;5036846;28;20049;-62
2021/08/30 04:14:18;;;;;;;17.48;10.50;;;;;;;17.18;85.25;101422.63;5036879;28;20060;-61
2021/08/30 04:16:47;;;;;;;15.27;10.27;;;;;;;17.18;85.36;101424.56;5033958;28;20080;-63
2021/08/30 04:19:14;;;;;;;15.98;11.07;;;;;;;17.05;86.67;101425.69;5034041;28;20049;-60
2021/08/30 04:21:42;;;;;;;16.17;11.45;;;;;;;17.12;85.84;101423.16;5033069;28;20497;-60
2021/08/30 04:24:09;;;;;;;18.35;11.40;;;;;;;17.37;84.92;101428.50;5034138;28;20054;-60
2021/08/30 04:26:37;;;;;;;15.88;11.88;;;;;;;17.39;84.31;101425.38;5033478;28;20049;-61
2021/08/30 04:29:05;;;;;;;21.73;13.45;;;;;;;17.44;84.15;101422.38;5035422;28;20046;-62
2021/08/30 04:31:33;;;;;;;18.23;10.43;;;;;;;17.59;83.42;101424.56;5033455;28;20049;-62
2021/08/30 04:34:00;;;;;;;14.70;10.63;;;;;;;17.72;82.36;101429.81;5034936;28;20053;-62
2021/08/30 04:36:27;;;;;;;14.95;10.73;;;;;;;17.81;82.24;101436.13;5035003;28;20060;-60
2021/08/30 04:38:55;;;;;;;16.73;11.57;;;;;;;17.81;81.93;101430.56;5035039;28;20056;-60
2021/08/30 04:41:23;;;;;;;23.70;11.85;;;;;;;17.71;82.31;101433.75;5034852;28;20202;-60
2021/08/30 04:43:51;;;;;;;21.80;12.52;;;;;;;17.32;84.69;101428.72;5034858;28;20060;-61
2021/08/30 04:46:19;;;;;;;17.63;12.50;;;;;;;17.65;83.13;101435.16;5033429;28;20424;-61
2021/08/30 04:48:47;;;;;;;16.73;12.43;;;;;;;17.85;82.17;101434.25;5017011;28;20060;-61
2021/08/30 04:51:14;;;;;;;17.10;13.38;;;;;;;17.71;82.54;101439.31;5016838;28;20053;-61
2021/08/30 04:53:42;;;;;;;20.92;13.57;;;;;;;17.83;81.97;101441.34;5034885;28;20581;-61
2021/08/30 04:56:12;;;;;;;21.27;14.98;;;;;;;17.52;83.82;101443.81;5033178;28;20138;-61
2021/08/30 04:58:40;;;;;;;19.40;14.57;;;;;;;17.29;85.69;101443.34;5034707;28;20416;-62
2021/08/30 05:01:07;;;;;;;20.40;15.00;;;;;;;16.93;88.63;101442.31;5033960;28;20489;-62
2021/08/30 05:03:35;;;;;;;22.75;14.85;;;;;;;17.26;87.29;101443.19;5034986;28;20060;-62
2021/08/30 05:06:02;;;;;;;18.55;14.48;;;;;;;17.18;87.61;101444.88;5016878;28;20060;-62
2021/08/30 05:08:30;;;;;;;21.05;15.32;;;;;;;17.49;86.29;101447.25;5034162;28;20050;-61
2021/08/30 05:10:57;;;;;;;25.05;15.82;;;;;;;17.48;85.66;101440.06;5033097;28;20057;-61
2021/08/30 05:13:29;;;;;;;19.67;14.65;;;;;;;17.74;84.18;101449.81;5045219;28;20057;-61
2021/08/30 05:15:56;;;;;;;24.50;15.73;;;;;;;17.55;84.69;101455.09;5053439;28;20052;-62
2021/08/30 05:18:24;;;;;;;24.13;17.13;;;;;;;17.23;86.89;101453.03;5054057;28;20045;-61
2021/08/30 05:20:52;;;;;;;23.52;16.13;;;;;;;17.38;86.41;101451.59;5054003;28;20053;-66
2021/08/30 05:23:20;;;;;;;22.77;16.90;;;;;;;17.61;84.99;101444.50;5054114;28;20060;-66
2021/08/30 05:25:47;;;;;;;21.08;15.95;;;;;;;17.75;83.97;101447.81;5054225;28;20500;-65
2021/08/30 05:28:14;;;;;;;27.73;17.50;;;;;;;17.59;84.29;101444.06;5054147;28;20056;-66
2021/08/30 05:30:41;;;;;;;24.73;18.02;;;;;;;17.52;85.02;101452.97;5052205;28;20055;-65
2021/08/30 05:33:09;;;;;;;26.45;18.10;;;;;;;17.50;85.04;101448.91;5053763;28;20056;-66
2021/08/30 05:35:36;;;;;;;24.58;18.40;;;;;;;17.59;85.05;101449.63;5053732;28;20057;-66
2021/08/30 05:38:04;;;;;;;26.05;19.35;;;;;;;17.47;85.14;101457.94;5037298;28;20065;-63
2021/08/30 05:40:31;;;;;;;24.55;17.73;;;;;;;17.37;86.14;101452.75;5020146;28;20053;-61
2021/08/30 05:42:59;;;;;;;29.73;19.50;;;;;;;17.43;85.68;101454.19;5013993;28;20046;-61
2021/08/30 05:45:27;;;;;;;23.25;18.05;;;;;;;17.71;84.72;101460.81;5014090;28;20062;-61
2021/08/30 05:47:55;;;;;;;27.00;19.30;;;;;;;17.76;84.37;101460.59;5014287;28;20064;-63
2021/08/30 05:50:22;;;;;;;26.50;18.83;;;;;;;17.69;84.22;101466.75;5013379;28;20050;-62
2021/08/30 05:52:49;;;;;;;27.58;18.42;;;;;;;17.69;84.68;101468.72;5014035;28;20054;-62
2021/08/30 05:55:17;;;;;;;26.63;19.60;;;;;;;17.48;85.47;101467.91;5015717;28;20050;-62
2021/08/30 05:57:44;;;;;;;22.92;16.55;;;;;;;17.61;85.06;101455.66;5033949;28;20057;-63
2021/08/30 06:00:12;;;;;;;26.73;20.48;;;;;;;17.72;84.08;101466.06;5029186;28;20493;-61
2021/08/30 06:02:40;;;;;;;27.65;20.52;;;;;;;17.40;85.99;101466.00;5019134;28;20167;-62
2021/08/30 06:05:07;;;;;;;27.33;20.17;;;;;;;17.46;85.80;101468.28;5030421;28;20052;-62
2021/08/30 06:07:35;;;;;;;31.27;23.42;;;;;;;17.31;86.49;101468.03;5025514;28;20054;-61
2021/08/30 06:10:02;;;;;;;27.45;21.63;;;;;;;17.35;86.77;101468.97;5012468;28;20050;-62
2021/08/30 06:12:30;;;;;;;31.42;21.95;;;;;;;17.62;85.48;101472.06;5030326;28;20050;-62
2021/08/30 06:14:57;;;;;;;32.38;23.13;;;;;;;17.68;84.36;101469.84;5051934;28;20052;-67
2021/08/30 06:17:24;;;;;;;31.80;22.63;;;;;;;17.55;85.29;101477.38;5035247;28;20060;-65
2021/08/30 06:19:51;;;;;;;26.35;20.52;;;;;;;17.61;85.04;101473.19;5045173;28;20041;-65
2021/08/30 06:22:19;;;;;;;30.85;23.63;;;;;;;17.61;84.68;101475.97;5028114;28;20052;-64
2021/08/30 06:24:47;;;;;;;31.55;22.95;;;;;;;17.53;85.62;101485.25;5032898;28;20072;-66
2021/08/30 06:27:17;;;;;;;36.45;24.80;;;;;;;17.48;85.54;101473.50;5012739;28;20062;-66
2021/08/30 06:29:44;;;;;;;29.60;23.50;;;;;;;17.43;86.05;101482.03;5023622;28;20065;-65
2021/08/30 06:32:12;;;;;;;34.72;22.83;;;;;;;17.59;85.48;101485.84;5034527;28;20362;-65
2021/08/30 06:34:39;;;;;;;31.15;21.08;;;;;;;17.97;83.77;101481.66;5032376;28;20053;-65
2021/08/30 06:37:07;;;;;;;34.05;22.98;;;;;;;17.69;84.31;101485.44;5027256;28;20085;-65
2021/08/30 06:39:35;;;;;;;34.92;24.17;;;;;;;17.80;83.89;101486.63;5007180;28;20060;-67
2021/08/30 06:42:03;;;;;;;38.05;25.27;;;;;;;17.24;87.22;101488.09;5017943;28;20588;-66
2021/08/30 06:44:30;;;;;;;35.05;24.25;;;;;;;17.42;86.55;101497.91;5026266;28;20072;-66
2021/08/30 06:46:57;;;;;;;31.75;25.55;;;;;;;17.42;85.88;101486.78;5021514;28;20064;-65
2021/08/30 06:49:24;;;;;;;29.77;23.15;;;;;;;17.62;84.85;101494.34;5029845;28;20046;-66
2021/08/30 06:51:52;;;;;;;27.48;22.27;;;;;;;17.65;84.82;101488.09;5027994;28;20049;-68
2021/08/30 06:54:19;;;;;;;28.50;23.15;;;;;;;17.44;85.29;101492.00;5030918;28;20049;-65
2021/08/30 06:56:46;;;;;;;32.60;24.52;;;;;;;17.40;85.46;101486.31;5034580;28;20045;-66
2021/08/30 06:59:13;;;;;;;32.38;23.67;;;;;;;17.62;84.94;101483.19;5016753;28;20053;-66
2021/08/30 07:01:41;;;;;;;28.08;21.33;;;;;;;17.69;83.71;101486.25;5018592;28;20052;-67
2021/08/30 07:04:08;;;;;;;29.95;21.92;;;;;;;17.98;83.08;101490.84;5026728;28;20054;-65
2021/08/30 07:06:36;;;;;;;28.05;21.23;;;;;;;17.81;83.18;101497.44;5028047;28;20053;-67
2021/08/30 07:09:04;;;;;;;26.58;20.55;;;;;;;18.04;82.23;101488.66;5031631;28;20657;-67
2021/08/30 07:11:32;;;;;;;31.08;23.00;;;;;;;17.80;82.50;101498.56;5020015;28;20068;-66
2021/08/30 07:13:59;;;;;;;30.08;20.92;;;;;;;18.00;82.14;101496.91;5024322;28;20057;-67
2021/08/30 07:16:27;;;;;;;30.08;20.05;;;;;;;18.26;80.72;101497.44;5013313;28;20054;-66
2021/08/30 07:18:55;;;;;;;28.45;19.80;;;;;;;18.29;79.66;101507.88;5027789;28;20071;-65
2021/08/30 07:21:23;;;;;;;27.77;19.60;;;;;;;18.16;80.29;101511.00;5029570;28;20052;-66
2021/08/30 07:23:51;;;;;;;26.13;20.02;;;;;;;17.80;80.93;101506.94;5017576;28;20045;-66
2021/08/30 07:26:19;;;;;;;28.60;18.88;;;;;;;17.90;80.98;101497.34;5020963;28;20049;-66
2021/08/30 07:28:47;;;;;;;25.65;19.10;;;;;;;17.93;80.74;101522.56;5026528;28;20054;-66
2021/08/30 07:31:15;;;;;;;22.75;18.95;;;;;;;17.86;81.07;101504.75;5018918;28;21619;-67
2021/08/30 07:33:43;;;;;;;26.38;18.75;;;;;;;17.89;80.54;101521.63;5008046;28;20056;-67
2021/08/30 07:36:10;;;;;;;26.75;17.80;;;;;;;17.78;80.93;101525.97;5020962;28;20054;-67
2021/08/30 07:38:38;;;;;;;20.50;17.08;;;;;;;17.83;80.86;101522.19;5018014;28;20046;-67
2021/08/30 07:41:05;;;;;;;24.70;19.10;;;;;;;17.84;80.28;101524.63;5020245;28;20046;-66
2021/08/30 07:43:32;;;;;;;21.00;17.20;;;;;;;17.76;80.20;101533.88;5028936;28;20053;-62
2021/08/30 07:46:01;;;;;;;20.38;17.40;;;;;;;17.80;80.63;101526.44;5023873;28;20060;-63
2021/08/30 07:48:28;;;;;;;28.58;16.90;;;;;;;17.88;80.41;101533.94;5021057;28;20038;-63
2021/08/30 07:50:56;;;;;;;21.85;16.50;;;;;;;18.06;79.84;101530.97;5017454;28;20118;-62
2021/08/30 07:53:27;;;;;;;21.08;16.15;;;;;;;17.96;79.13;101530.22;5021632;28;20383;-62
2021/08/30 07:55:55;;;;;;;20.52;15.57;;;;;;;18.31;78.90;101530.69;5025502;28;20057;-62
2021/08/30 07:58:23;;;;;;;19.67;15.18;;;;;;;18.20;77.75;101523.91;5025980;28;20408;-61
2021/08/30 08:00:51;;;;;;;22.85;15.05;;;;;;;18.13;78.15;101528.44;5027951;28;20061;-63
2021/08/30 08:03:19;;;;;;;21.88;14.75;;;;;;;18.13;78.18;101534.84;5019889;28;20050;-61
2021/08/30 08:05:46;;;;;;;22.45;13.95;;;;;;;18.19;77.52;101540.97;5018661;28;20069;-67
2021/08/30 08:08:16;;;;;;;18.85;14.73;;;;;;;18.25;77.24;101539.63;5015001;28;20049;-62
2021/08/30 08:10:44;;;;;;;21.63;15.07;;;;;;;18.16;77.60;101538.88;5016313;28;20053;-62
2021/08/30 08:13:11;;;;;;;25.40;14.52;;;;;;;18.33;76.83;101542.31;5027418;28;20041;-62
2021/08/30 08:15:39;;;;;;;21.08;13.52;;;;;;;18.61;76.42;101534.13;5015314;28;20041;-67
2021/08/30 08:18:07;;;;;;;18.70;13.27;;;;;;;18.80;74.87;101537.16;5028089;28;20061;-68
2021/08/30 08:20:34;;;;;;;18.70;12.85;;;;;;;18.66;74.29;101540.28;5021883;28;20270;-66
2021/08/30 08:23:04;;;;;;;18.42;13.30;;;;;;;18.66;74.21;101551.47;5024766;28;20057;-67
2021/08/30 08:25:31;;;;;;;18.60;13.17;;;;;;;18.66;74.10;101551.47;5021162;28;20488;-66
2021/08/30 08:28:01;;;;;;;18.83;12.45;;;;;;;18.63;74.57;101549.38;5020662;28;20054;-64
2021/08/30 08:30:28;;;;;;;15.75;12.30;;;;;;;18.63;73.92;101551.34;5038507;28;20050;-62
2021/08/30 08:32:56;;;;;;;17.15;12.45;;;;;;;18.71;73.31;101545.66;5026498;28;20060;-61
2021/08/30 08:35:24;;;;;;;17.00;12.77;;;;;;;18.66;73.52;101551.47;5023267;28;20494;-63
2021/08/30 08:37:51;;;;;;;18.10;11.88;;;;;;;18.64;73.75;101556.56;5025652;28;20045;-66
2021/08/30 08:40:19;;;;;;;18.38;12.13;;;;;;;18.83;73.12;101554.00;5025872;28;20041;-66
2021/08/30 08:42:46;;;;;;;17.08;11.45;;;;;;;18.67;73.56;101569.03;5018612;28;20088;-66
2021/08/30 08:45:15;;;;;;;17.95;11.55;;;;;;;18.45;73.44;101566.66;5019624;28;20058;-67
2021/08/30 08:47:44;;;;;;;15.43;11.25;;;;;;;18.64;72.90;101555.75;5022807;28;20060;-66
2021/08/30 08:50:14;;;;;;;22.10;11.75;;;;;;;18.78;72.26;101550.63;5019892;28;20053;-67
2021/08/30 08:52:43;;;;;;;16.10;11.23;;;;;;;19.03;70.95;101558.69;5016955;28;20065;-66
2021/08/30 08:55:12;;;;;;;18.73;10.77;;;;;;;19.00;71.66;101556.56;5016143;28;20049;-66
2021/08/30 08:57:39;;;;;;;23.48;11.50;;;;;;;19.09;70.71;101560.06;5014947;28;20080;-66
2021/08/30 09:00:10;;;;;;;15.13;11.05;;;;;;;19.20;70.11;101549.22;5027692;28;20425;-66
2021/08/30 09:02:38;;;;;;;14.75;10.68;;;;;;;19.14;69.89;101545.06;5019793;28;20065;-67
2021/08/30 09:05:07;;;;;;;17.00;10.50;;;;;;;19.21;69.02;101547.25;5015800;28;20049;-66
2021/08/30 09:07:45;;;;;;;15.68;11.10;;;;;;;19.14;69.40;101542.28;5019388;28;20056;-67
2021/08/30 09:10:15;;;;;;;14.02;10.18;;;;;;;19.31;68.71;101555.19;5018309;28;20049;-67
2021/08/30 09:12:43;;;;;;;17.17;10.75;;;;;;;19.35;67.73;101550.53;5014036;28;20057;-67
2021/08/30 09:15:20;;;;;;;17.60;10.30;;;;;;;19.34;67.37;101557.25;5024989;28;20677;-67
2021/08/30 09:17:55;;;;;;;13.48;10.57;;;;;;;19.29;67.28;101552.72;5017914;28;20489;-66
2021/08/30 09:20:28;;;;;;;14.80;10.75;;;;;;;19.24;67.74;101561.34;5044635;28;20045;-66
2021/08/30 09:22:55;;;;;;;14.80;10.02;;;;;;;19.36;67.45;101564.13;5022466;28;20061;-66
2021/08/30 09:25:23;;;;;;;14.98;9.90;;;;;;;19.41;67.27;101552.72;5014929;28;20049;-65
2021/08/30 09:27:51;;;;;;;14.15;10.10;;;;;;;19.47;66.30;101561.69;5027139;28;20046;-65
2021/08/30 09:30:26;;;;;;;15.65;9.63;;;;;;;19.35;64.80;101568.13;5025537;28;20047;-67
2021/08/30 09:32:53;;;;;;;17.08;9.07;;;;;;;19.33;66.04;101564.03;5017544;28;20057;-67
2021/08/30 09:35:21;;;;;;;17.65;9.40;;;;;;;19.37;65.66;101568.56;5015044;28;20158;-67
2021/08/30 09:37:49;;;;;;;17.20;9.90;;;;;;;19.13;67.24;101562.97;5014874;28;20405;-66
2021/08/30 09:40:20;;;;;;;18.23;9.68;;;;;;;19.29;67.49;101563.88;5018451;28;20117;-67
2021/08/30 09:42:54;;;;;;;13.13;10.45;;;;;;;19.52;66.38;101569.81;5016601;28;20049;-67
2021/08/30 09:45:24;;;;;;;15.25;10.25;;;;;;;19.41;67.23;101577.03;5015154;28;20196;-67
2021/08/30 09:47:56;;;;;;;18.50;10.75;;;;;;;19.37;67.16;101574.13;5020768;28;20064;-66
2021/08/30 09:50:28;;;;;;;13.00;9.80;;;;;;;19.31;67.22;101567.19;5038827;28;20049;-67
2021/08/30 09:52:57;;;;;;;15.18;10.35;;;;;;;19.48;66.81;101564.13;5020713;28;20057;-67
2021/08/30 09:55:25;;;;;;;16.20;9.98;;;;;;;19.47;66.04;101567.25;5024087;28;20453;-67
2021/08/30 09:57:53;;;;;;;16.85;8.98;;;;;;;19.48;65.24;101563.28;4992169;28;20053;-66
2021/08/30 10:00:21;;;;;;;15.48;9.23;;;;;;;19.42;65.11;101562.72;5018814;28;20046;-66
2021/08/30 10:02:53;;;;;;;14.82;9.05;;;;;;;19.53;65.30;101552.69;5017815;28;20054;-67
2021/08/30 10:05:22;;;;;;;12.48;8.70;;;;;;;19.57;64.74;101559.22;5014245;28;20505;-65
2021/08/30 10:07:49;;;;;;;12.82;7.95;;;;;;;19.49;64.87;101550.97;5016872;28;20056;-66
2021/08/30 10:10:17;;;;;;;18.98;8.52;;;;;;;19.59;64.71;101545.69;5018080;28;20057;-66
2021/08/30 10:12:45;;;;;;;13.10;8.48;;;;;;;19.75;64.30;101542.97;5018208;28;20041;-67
2021/08/30 10:15:13;;;;;;;15.93;8.63;;;;;;;19.74;64.21;101544.94;5011070;28;20056;-67
2021/08/30 10:17:45;;;;;;;12.75;8.45;;;;;;;19.73;64.41;101553.69;5016794;28;20425;-66
2021/08/30 10:20:16;;;;;;;12.77;8.73;;;;;;;19.71;64.31;101544.84;5019215;28;20509;-67
2021/08/30 10:22:58;;;;;;;14.85;9.30;;;;;;;19.50;64.89;101561.78;5014098;28;20054;-67
2021/08/30 10:25:26;;;;;;;14.20;9.20;;;;;;;19.46;65.17;101552.47;5015695;28;20049;-67
2021/08/30 10:28:13;;;;;;;13.35;8.23;;;;;;;19.54;64.53;101545.94;5020373;28;20042;-68
2021/08/30 10:30:53;;;;;;;16.88;8.55;;;;;;;19.69;64.47;101539.59;5019020;28;20145;-67
2021/08/30 10:33:24;;;;;;;11.90;8.07;;;;;;;19.84;63.15;101546.44;5019539;28;20053;-67
2021/08/30 10:35:51;;;;;;;12.20;7.60;;;;;;;19.87;63.51;101543.72;5024089;28;20045;-68
2021/08/30 10:38:20;;;;;;;13.90;8.32;;;;;;;19.80;63.70;101551.91;5020331;28;20045;-68
2021/08/30 10:40:50;;;;;;;12.40;7.57;;;;;;;19.97;62.45;101550.78;5026616;28;20056;-69
2021/08/30 10:43:19;;;;;;;9.82;6.80;;;;;;;19.90;63.19;101545.81;5031306;28;20416;-68
2021/08/30 10:45:57;;;;;;;13.18;7.38;;;;;;;19.87;63.32;101548.50;5015239;28;20053;-69
2021/08/30 10:48:35;;;;;;;14.20;8.45;;;;;;;19.78;63.18;101550.63;5012998;28;20046;-68
2021/08/30 10:51:15;;;;;;;14.50;9.02;;;;;;;19.84;62.88;101543.63;5012780;28;20057;-68
2021/08/30 10:53:54;;;;;;;12.40;8.68;;;;;;;19.96;63.18;101541.56;5012892;28;20054;-67
2021/08/30 10:56:26;;;;;;;15.48;8.27;;;;;;;19.88;64.19;101545.34;5015222;28;20052;-67
2021/08/30 10:58:56;;;;;;;14.77;9.02;;;;;;;19.98;63.23;101547.63;5011620;28;20477;-65
2021/08/30 11:01:23;;;;;;;12.40;8.60;;;;;;;19.77;64.40;101549.81;5021038;28;20046;-61
2021/08/30 11:03:58;;;;;;;15.05;8.80;;;;;;;19.90;63.89;101559.78;5026832;28;20531;-64
2021/08/30 11:06:25;;;;;;;16.15;9.00;;;;;;;19.75;63.46;101554.94;5032109;28;20551;-63
2021/08/30 11:08:53;;;;;;;14.20;8.52;;;;;;;19.72;63.29;101547.28;5031249;28;20489;-63
2021/08/30 11:11:26;;;;;;;11.13;7.15;;;;;;;19.79;62.82;101550.28;5013841;28;20048;-63
2021/08/30 11:14:05;;;;;;;12.80;7.47;;;;;;;19.97;62.59;101547.97;5046511;28;20473;-63
2021/08/30 11:16:34;;;;;;;11.20;8.10;;;;;;;19.85;62.44;101553.63;5034573;28;20049;-63
2021/08/30 11:19:03;;;;;;;13.30;7.50;;;;;;;19.95;61.91;101550.31;5035556;28;20116;-62
2021/08/30 11:21:48;;;;;;;12.83;7.93;;;;;;;19.97;61.93;101560.00;5035535;28;20056;-64
2021/08/30 11:24:35;;;;;;;11.50;7.80;;;;;;;19.76;61.82;101548.19;5034530;28;20327;-64
2021/08/30 11:27:19;;;;;;;12.30;8.07;;;;;;;19.94;61.84;101554.31;5035453;28;20080;-64